createdAt,value
2022-10-04T00:02:27.849Z,9.07
2022-10-04T00:05:04.156Z,9.09
2022-10-04T00:07:36.176Z,9.10
2022-10-04T00:10:08.880Z,9.15
2022-10-04T00:12:40.807Z,9.14
2022-10-04T00:15:22.039Z,9.18
2022-10-04T00:18:22.043Z,9.21
2022-10-04T00:21:04.166Z,9.24
2022-10-04T00:23:48.311Z,9.17
2022-10-04T00:26:53.658Z,9.12
2022-10-04T00:29:42.125Z,9.13
2022-10-04T00:32:33.511Z,9.10
2022-10-04T00:35:05.744Z,9.12
2022-10-04T00:37:59.006Z,9.12
2022-10-04T00:40:30.787Z,9.12
2022-10-04T00:43:03.111Z,9.13
2022-10-04T00:45:37.250Z,9.15
2022-10-04T00:48:31.220Z,9.10
2022-10-04T00:51:07.957Z,9.08
2022-10-04T00:53:43.295Z,9.12
2022-10-04T00:56:16.259Z,9.10
2022-10-04T00:58:51.390Z,9.03
2022-10-04T01:01:24.777Z,9.03
2022-10-04T01:03:56.623Z,9.05
2022-10-04T01:06:29.387Z,9.03
2022-10-04T01:09:08.059Z,9.01
2022-10-04T01:11:40.659Z,9.00
2022-10-04T01:14:14.606Z,9.00
2022-10-04T01:16:44.688Z,9.01
2022-10-04T01:19:31.906Z,9.04
2022-10-04T01:22:13.312Z,9.03
2022-10-04T01:24:46.879Z,9.04
2022-10-04T01:27:38.568Z,9.04
2022-10-04T01:30:10.994Z,9.02
2022-10-04T01:32:41.432Z,9.01
2022-10-04T01:35:12.929Z,9.02
2022-10-04T01:37:42.846Z,9.02
2022-10-04T01:40:15.172Z,9.01
2022-10-04T01:42:48.835Z,9.01
2022-10-04T01:45:24.161Z,8.99
2022-10-04T01:47:57.452Z,9.00
2022-10-04T01:50:31.813Z,9.04
2022-10-04T01:53:04.264Z,9.03
2022-10-04T01:55:38.099Z,9.01
2022-10-04T01:58:15.680Z,8.99
2022-10-04T02:00:51.522Z,8.94
2022-10-04T02:03:24.966Z,8.95
2022-10-04T02:05:57.269Z,8.93
2022-10-04T02:08:29.439Z,8.92
2022-10-04T02:11:02.643Z,8.95
2022-10-04T02:13:37.153Z,8.88
2022-10-04T02:16:07.357Z,8.85
2022-10-04T02:18:40.256Z,8.82
2022-10-04T02:21:10.572Z,8.83
2022-10-04T02:23:40.508Z,8.84
2022-10-04T02:26:14.180Z,8.84
2022-10-04T02:28:43.820Z,8.82
2022-10-04T02:31:26.499Z,8.82
2022-10-04T02:33:59.556Z,8.80
2022-10-04T02:36:30.840Z,8.83
2022-10-04T02:39:04.387Z,8.84
2022-10-04T02:41:40.416Z,8.85
2022-10-04T02:44:14.986Z,8.86
2022-10-04T02:46:48.639Z,8.86
2022-10-04T02:49:23.209Z,8.82
2022-10-04T02:51:55.201Z,8.74
2022-10-04T02:54:30.713Z,8.69
2022-10-04T02:57:03.556Z,8.76
2022-10-04T02:59:35.485Z,8.77
2022-10-04T03:02:05.553Z,8.78
2022-10-04T03:04:36.920Z,8.80
2022-10-04T03:07:09.515Z,8.79
2022-10-04T03:09:40.178Z,8.80
2022-10-04T03:12:13.830Z,8.77
2022-10-04T03:14:43.509Z,8.76
2022-10-04T03:17:13.228Z,8.77
2022-10-04T03:19:42.898Z,8.77
2022-10-04T03:22:14.669Z,8.73
2022-10-04T03:24:49.163Z,8.73
2022-10-04T03:27:25.036Z,8.73
2022-10-04T03:29:59.054Z,8.73
2022-10-04T03:32:30.481Z,8.75
2022-10-04T03:35:01.435Z,8.76
2022-10-04T03:37:32.679Z,8.77
2022-10-04T03:40:02.866Z,8.78
2022-10-04T03:42:37.345Z,8.77
2022-10-04T03:45:11.101Z,8.78
2022-10-04T03:47:42.457Z,8.81
2022-10-04T03:50:18.719Z,8.80
2022-10-04T03:52:54.020Z,8.81
2022-10-04T03:55:24.458Z,8.83
2022-10-04T03:57:56.656Z,8.83
2022-10-04T04:00:26.252Z,8.84
2022-10-04T04:02:59.316Z,8.84
2022-10-04T04:05:32.105Z,8.88
2022-10-04T04:08:07.237Z,8.90
2022-10-04T04:10:39.800Z,8.90
2022-10-04T04:13:21.066Z,8.91
2022-10-04T04:15:50.719Z,8.93
2022-10-04T04:18:25.849Z,8.94
2022-10-04T04:20:59.428Z,8.96
2022-10-04T04:23:33.177Z,8.99
2022-10-04T04:26:16.895Z,9.04
2022-10-04T04:28:51.808Z,9.01
2022-10-04T04:31:23.837Z,9.00
2022-10-04T04:33:59.310Z,8.96
2022-10-04T04:36:29.986Z,8.96
2022-10-04T04:39:22.608Z,8.92
2022-10-04T04:41:52.342Z,8.90
2022-10-04T04:44:24.826Z,8.90
2022-10-04T04:47:00.411Z,8.89
2022-10-04T04:49:32.614Z,8.90
2022-10-04T04:52:02.467Z,8.88
2022-10-04T04:54:32.043Z,8.89
2022-10-04T04:57:01.624Z,8.89
2022-10-04T04:59:34.591Z,8.88
2022-10-04T05:02:04.261Z,8.87
2022-10-04T05:04:33.849Z,8.88
2022-10-04T05:07:06.371Z,8.85
2022-10-04T05:09:38.523Z,8.82
2022-10-04T05:12:11.605Z,8.81
2022-10-04T05:14:49.030Z,8.80
2022-10-04T05:17:22.923Z,8.77
2022-10-04T05:19:53.649Z,8.76
2022-10-04T05:22:25.479Z,8.79
2022-10-04T05:24:56.584Z,8.79
2022-10-04T05:27:30.373Z,8.81
2022-10-04T05:30:08.126Z,8.91
2022-10-04T05:32:46.372Z,9.05
2022-10-04T05:35:20.570Z,8.93
2022-10-04T05:38:05.295Z,8.99
2022-10-04T05:40:41.696Z,8.99
2022-10-04T05:43:25.421Z,9.03
2022-10-04T05:46:25.358Z,9.06
2022-10-04T05:48:57.172Z,9.04
2022-10-04T05:51:27.831Z,9.01
2022-10-04T05:53:58.266Z,9.00
2022-10-04T05:56:51.771Z,9.10
2022-10-04T05:59:49.849Z,9.12
2022-10-04T06:02:31.358Z,9.15
2022-10-04T06:05:11.906Z,9.12
2022-10-04T06:07:44.765Z,9.11
2022-10-04T06:10:37.840Z,9.12
2022-10-04T06:13:13.086Z,9.09
2022-10-04T06:15:59.667Z,9.11
2022-10-04T06:18:46.718Z,9.12
2022-10-04T06:21:23.444Z,9.13
2022-10-04T06:23:57.773Z,9.12
2022-10-04T06:26:30.327Z,9.12
2022-10-04T06:29:02.648Z,9.13
2022-10-04T06:31:57.380Z,9.14
2022-10-04T06:35:06.774Z,9.17
2022-10-04T06:37:48.171Z,9.20
2022-10-04T06:40:34.337Z,9.23
2022-10-04T06:43:18.251Z,9.29
2022-10-04T06:45:55.931Z,9.42
2022-10-04T06:48:51.265Z,9.37
2022-10-04T06:51:29.562Z,9.43
2022-10-04T06:54:05.673Z,9.47
2022-10-04T06:56:50.114Z,9.53
2022-10-04T06:59:37.141Z,9.58
2022-10-04T07:02:10.681Z,9.67
2022-10-04T07:05:09.438Z,9.78
2022-10-04T07:07:39.346Z,9.82
2022-10-04T07:10:26.848Z,9.88
2022-10-04T07:13:06.836Z,9.94
2022-10-04T07:15:44.651Z,10.00
2022-10-04T07:18:18.621Z,10.03
2022-10-04T07:20:48.991Z,10.06
2022-10-04T07:23:28.681Z,10.14
2022-10-04T07:26:01.611Z,10.22
2022-10-04T07:28:46.413Z,10.29
2022-10-04T07:31:17.829Z,10.32
2022-10-04T07:33:49.902Z,10.39
2022-10-04T07:36:22.997Z,10.42
2022-10-04T07:39:00.249Z,10.50
2022-10-04T07:41:32.522Z,10.54
2022-10-04T07:44:04.779Z,10.58
2022-10-04T07:46:52.813Z,10.62
2022-10-04T07:49:23.962Z,10.71
2022-10-04T07:52:06.215Z,10.76
2022-10-04T07:54:42.034Z,10.79
2022-10-04T07:57:17.400Z,10.82
2022-10-04T07:59:52.773Z,10.87
2022-10-04T08:02:31.645Z,10.93
2022-10-04T08:05:08.032Z,10.92
2022-10-04T08:07:49.685Z,10.95
2022-10-04T08:10:27.100Z,11.01
2022-10-04T08:13:00.939Z,11.07
2022-10-04T08:15:39.346Z,11.12
2022-10-04T08:18:20.675Z,11.21
2022-10-04T08:20:51.764Z,11.24
2022-10-04T08:23:37.026Z,11.29
2022-10-04T08:26:20.131Z,11.40
2022-10-04T08:29:08.564Z,11.45
2022-10-04T08:31:55.857Z,11.54
2022-10-04T08:34:34.646Z,11.57
2022-10-04T08:37:11.890Z,11.60
2022-10-04T08:39:53.225Z,11.64
2022-10-04T08:42:42.041Z,11.73
2022-10-04T08:45:26.920Z,11.81
2022-10-04T08:48:33.005Z,11.95
2022-10-04T08:51:47.409Z,12.01
2022-10-04T08:54:42.650Z,12.14
2022-10-04T08:57:38.147Z,12.21
2022-10-04T09:00:16.589Z,12.33
2022-10-04T09:03:16.722Z,12.41
2022-10-04T09:06:17.860Z,12.55
2022-10-04T09:09:19.761Z,12.71
2022-10-04T09:12:01.067Z,12.87
2022-10-04T09:14:45.831Z,12.98
2022-10-04T09:17:23.169Z,13.06
2022-10-04T09:20:13.926Z,13.04
2022-10-04T09:22:57.088Z,13.17
2022-10-04T09:25:47.396Z,13.21
2022-10-04T09:29:04.934Z,13.32
2022-10-04T09:32:10.440Z,13.43
2022-10-04T09:34:49.845Z,13.55
2022-10-04T09:37:32.985Z,13.67
2022-10-04T09:40:31.985Z,13.77
2022-10-04T09:43:16.333Z,13.87
2022-10-04T09:45:55.226Z,13.93
2022-10-04T09:48:40.623Z,14.10
2022-10-04T09:51:19.855Z,14.24
2022-10-04T09:54:14.982Z,14.30
2022-10-04T09:56:53.345Z,14.41
2022-10-04T09:59:42.478Z,14.48
2022-10-04T10:02:56.424Z,14.57
2022-10-04T10:05:33.523Z,14.67
2022-10-04T10:08:12.207Z,14.75
2022-10-04T10:10:59.424Z,14.81
2022-10-04T10:13:59.523Z,14.96
2022-10-04T10:16:42.010Z,15.03
2022-10-04T10:19:45.286Z,15.11
2022-10-04T10:22:31.112Z,15.17
2022-10-04T10:25:18.774Z,15.22
2022-10-04T10:28:07.934Z,15.29
2022-10-04T10:30:49.872Z,15.37
2022-10-04T10:33:42.542Z,15.43
2022-10-04T10:36:24.492Z,15.47
2022-10-04T10:39:06.106Z,15.53
2022-10-04T10:41:44.873Z,15.56
2022-10-04T10:44:23.575Z,15.59
2022-10-04T10:47:01.663Z,15.67
2022-10-04T10:49:44.353Z,15.75
2022-10-04T10:52:43.517Z,15.82
2022-10-04T10:55:32.365Z,15.77
2022-10-04T10:58:34.085Z,15.85
2022-10-04T11:01:18.808Z,15.91
2022-10-04T11:04:16.512Z,15.92
2022-10-04T11:07:14.111Z,15.99
2022-10-04T11:10:16.293Z,16.08
2022-10-04T11:13:13.883Z,16.13
2022-10-04T11:15:53.586Z,16.20
2022-10-04T11:18:49.681Z,16.25
2022-10-04T11:21:50.653Z,16.27
2022-10-04T11:24:45.032Z,16.34
2022-10-04T11:27:20.634Z,16.35
2022-10-04T11:30:08.625Z,16.43
2022-10-04T11:33:12.977Z,16.45
2022-10-04T11:36:00.342Z,16.48
2022-10-04T11:38:48.839Z,16.51
2022-10-04T11:41:23.254Z,16.58
2022-10-04T11:44:16.423Z,16.66
2022-10-04T11:46:52.441Z,16.72
2022-10-04T11:49:35.589Z,16.76
2022-10-04T11:52:34.346Z,16.81
2022-10-04T11:55:54.386Z,16.82
2022-10-04T11:58:32.793Z,16.86
2022-10-04T12:01:22.673Z,16.90
2022-10-04T12:04:22.226Z,17.01
2022-10-04T12:07:08.355Z,17.10
2022-10-04T12:09:44.040Z,17.14
2022-10-04T12:12:41.001Z,17.22
2022-10-04T12:15:52.045Z,17.25
2022-10-04T12:18:41.864Z,17.28
2022-10-04T12:24:13.138Z,17.37
2022-10-04T12:27:02.875Z,17.43
2022-10-04T12:30:10.547Z,17.46
2022-10-04T12:32:45.512Z,17.50
2022-10-04T12:35:25.276Z,17.52
2022-10-04T12:38:16.339Z,17.56
2022-10-04T12:40:51.388Z,17.54
2022-10-04T12:43:28.104Z,17.54
2022-10-04T12:46:07.783Z,17.53
2022-10-04T12:48:48.278Z,17.58
2022-10-04T12:51:39.479Z,17.63
2022-10-04T12:54:24.024Z,17.69
2022-10-04T12:57:01.884Z,17.72
2022-10-04T12:59:43.934Z,17.71
2022-10-04T13:02:25.556Z,17.78
2022-10-04T13:04:57.561Z,17.83
2022-10-04T13:07:51.796Z,17.84
2022-10-04T13:10:33.211Z,17.87
2022-10-04T13:13:30.048Z,17.92
2022-10-04T13:19:08.611Z,18.03
2022-10-04T13:22:04.874Z,18.03
2022-10-04T13:24:55.150Z,18.07
2022-10-04T13:27:32.473Z,18.08
2022-10-04T13:30:04.803Z,18.10
2022-10-04T13:32:39.259Z,18.14
2022-10-04T13:35:20.497Z,18.23
2022-10-04T13:38:02.486Z,18.16
2022-10-04T13:40:47.330Z,18.18
2022-10-04T13:43:36.616Z,18.17
2022-10-04T13:46:14.663Z,18.18
2022-10-04T13:49:07.543Z,18.21
2022-10-04T13:52:10.068Z,18.22
2022-10-04T13:54:56.048Z,18.23
2022-10-04T13:57:30.149Z,18.23
2022-10-04T14:00:07.653Z,18.25
2022-10-04T14:03:04.885Z,18.28
2022-10-04T14:06:00.933Z,18.29
2022-10-04T14:08:59.193Z,18.29
2022-10-04T14:12:09.349Z,18.30
2022-10-04T14:15:17.576Z,18.35
2022-10-04T14:18:12.307Z,18.39
2022-10-04T14:21:19.151Z,18.40
2022-10-04T14:24:12.316Z,18.42
2022-10-04T14:27:17.272Z,18.44
2022-10-04T14:30:12.781Z,18.47
2022-10-04T14:33:01.448Z,18.47
2022-10-04T14:35:35.603Z,18.48
2022-10-04T14:38:41.734Z,18.43
2022-10-04T14:41:39.112Z,18.45
2022-10-04T14:44:28.844Z,18.48
2022-10-04T14:47:06.435Z,18.47
2022-10-04T14:49:51.707Z,18.51
2022-10-04T14:52:35.019Z,18.49
2022-10-04T14:55:15.295Z,18.50
2022-10-04T14:57:58.299Z,18.44
2022-10-04T15:00:31.356Z,18.43
2022-10-04T15:03:20.263Z,18.38
2022-10-04T15:06:12.869Z,18.32
2022-10-04T15:09:09.658Z,18.26
2022-10-04T15:12:21.570Z,18.22
2022-10-04T15:14:46.464Z,18.18
2022-10-04T15:17:28.622Z,18.14
2022-10-04T15:20:08.234Z,18.13
2022-10-04T15:22:43.886Z,18.08
2022-10-04T15:25:43.760Z,18.06
2022-10-04T15:28:29.421Z,18.04
2022-10-04T15:31:04.661Z,18.01
2022-10-04T15:33:41.806Z,17.97
2022-10-04T15:36:28.664Z,17.92
2022-10-04T15:39:03.220Z,17.89
2022-10-04T15:41:41.651Z,17.85
2022-10-04T15:44:31.581Z,17.78
2022-10-04T15:47:12.498Z,17.73
2022-10-04T15:49:54.201Z,17.68
2022-10-04T15:52:45.486Z,17.64
2022-10-04T15:55:28.477Z,17.61
2022-10-04T15:58:19.873Z,17.55
2022-10-04T16:01:01.399Z,17.52
2022-10-04T16:03:40.820Z,17.47
2022-10-04T16:06:13.938Z,17.40
2022-10-04T16:08:59.205Z,17.32
2022-10-04T16:11:37.141Z,17.25
2022-10-04T16:14:23.380Z,17.17
2022-10-04T16:17:05.708Z,17.07
2022-10-04T16:19:55.286Z,16.99
2022-10-04T16:22:31.242Z,16.92
2022-10-04T16:25:01.979Z,16.88
2022-10-04T16:27:48.527Z,16.81
2022-10-04T16:30:28.382Z,16.68
2022-10-04T16:33:27.483Z,16.71
2022-10-04T16:36:15.005Z,16.65
2022-10-04T16:39:10.279Z,16.55
2022-10-04T16:41:44.734Z,16.48
2022-10-04T16:44:32.100Z,16.35
2022-10-04T16:47:07.043Z,16.22
2022-10-04T16:49:41.825Z,16.15
2022-10-04T16:52:23.445Z,16.08
2022-10-04T16:55:06.941Z,16.03
2022-10-04T16:57:36.504Z,15.94
2022-10-04T17:00:35.408Z,15.86
2022-10-04T17:03:19.939Z,15.75
2022-10-04T17:06:05.069Z,15.65
2022-10-04T17:08:50.615Z,15.57
2022-10-04T17:11:35.780Z,15.52
2022-10-04T17:14:09.874Z,15.44
2022-10-04T17:16:41.057Z,15.35
2022-10-04T17:19:24.855Z,15.28
2022-10-04T17:22:05.848Z,15.21
2022-10-04T17:24:43.871Z,15.14
2022-10-04T17:27:29.853Z,15.07
2022-10-04T17:30:07.872Z,15.00
2022-10-04T17:32:47.410Z,15.01
2022-10-04T17:35:59.289Z,14.99
2022-10-04T17:38:35.201Z,14.93
2022-10-04T17:41:11.296Z,14.85
2022-10-04T17:43:46.404Z,14.75
2022-10-04T17:46:20.397Z,14.69
2022-10-04T17:49:05.191Z,14.62
2022-10-04T17:52:12.906Z,14.53
2022-10-04T17:54:59.855Z,14.43
2022-10-04T17:57:34.182Z,14.39
2022-10-04T18:00:11.777Z,14.30
2022-10-04T18:03:09.412Z,14.26
2022-10-04T18:05:50.631Z,14.14
2022-10-04T18:08:27.268Z,14.10
2022-10-04T18:11:00.200Z,14.07
2022-10-04T18:13:34.585Z,14.03
2022-10-04T18:16:10.125Z,13.92
2022-10-04T18:18:43.750Z,13.88
2022-10-04T18:21:27.305Z,13.84
2022-10-04T18:24:05.278Z,13.77
2022-10-04T18:26:36.081Z,13.73
2022-10-04T18:29:09.390Z,13.68
2022-10-04T18:31:40.682Z,13.62
2022-10-04T18:34:22.059Z,13.59
2022-10-04T18:37:06.500Z,13.53
2022-10-04T18:39:53.126Z,13.49
2022-10-04T18:42:30.598Z,13.40
2022-10-04T18:45:02.571Z,13.38
2022-10-04T18:47:37.069Z,13.32
2022-10-04T18:50:18.900Z,13.27
2022-10-04T18:52:57.861Z,13.22
2022-10-04T18:55:36.854Z,13.18
2022-10-04T18:58:25.178Z,13.16
2022-10-04T19:01:12.263Z,13.07
2022-10-04T19:03:47.052Z,13.01
2022-10-04T19:06:19.697Z,12.97
2022-10-04T19:08:55.943Z,12.89
2022-10-04T19:11:32.232Z,12.84
2022-10-04T19:14:08.424Z,12.79
2022-10-04T19:16:44.707Z,12.78
2022-10-04T19:19:34.355Z,12.74
2022-10-04T19:22:11.107Z,12.65
2022-10-04T19:24:58.876Z,12.63
2022-10-04T19:27:36.438Z,12.63
2022-10-04T19:30:15.456Z,12.62
2022-10-04T19:33:04.642Z,12.59
2022-10-04T19:35:48.637Z,12.55
2022-10-04T19:38:30.207Z,12.51
2022-10-04T19:41:06.601Z,12.50
2022-10-04T19:43:44.645Z,12.46
2022-10-04T19:46:19.992Z,12.45
2022-10-04T19:48:52.420Z,12.43
2022-10-04T19:51:28.476Z,12.41
2022-10-04T19:54:03.869Z,12.38
2022-10-04T19:56:35.867Z,12.36
2022-10-04T19:59:10.385Z,12.34
2022-10-04T20:01:39.912Z,12.32
2022-10-04T20:04:27.108Z,12.28
2022-10-04T20:06:58.618Z,12.28
2022-10-04T20:09:35.399Z,12.24
2022-10-04T20:12:05.301Z,12.23
2022-10-04T20:15:12.972Z,12.22
2022-10-04T20:17:46.206Z,12.19
2022-10-04T20:20:18.780Z,12.16
2022-10-04T20:22:59.765Z,12.15
2022-10-04T20:26:02.199Z,12.13
2022-10-04T20:28:43.777Z,12.07
2022-10-04T20:31:15.013Z,12.07
2022-10-04T20:33:51.305Z,12.03
2022-10-04T20:36:54.549Z,12.00
2022-10-04T20:40:03.089Z,11.93
2022-10-04T20:42:34.854Z,11.87
2022-10-04T20:45:08.213Z,11.80
2022-10-04T20:47:57.556Z,11.78
2022-10-04T20:50:50.905Z,11.90
2022-10-04T20:53:22.836Z,11.99
2022-10-04T20:55:57.168Z,12.07
2022-10-04T20:58:31.587Z,12.15
2022-10-04T21:01:10.965Z,12.20
2022-10-04T21:03:40.596Z,12.25
2022-10-04T21:06:14.728Z,12.28
2022-10-04T21:08:44.255Z,12.35
2022-10-04T21:11:20.817Z,12.43
2022-10-04T21:13:55.424Z,12.47
2022-10-04T21:16:53.491Z,12.46
2022-10-04T21:19:48.730Z,12.42
2022-10-04T21:22:42.427Z,12.40
2022-10-04T21:25:33.890Z,12.36
2022-10-04T21:28:32.545Z,12.32
2022-10-04T21:31:06.403Z,12.33
2022-10-04T21:33:37.008Z,12.36
2022-10-04T21:36:07.573Z,12.30
2022-10-04T21:38:39.699Z,12.32
2022-10-04T21:41:09.523Z,12.32
2022-10-04T21:43:40.078Z,12.34
2022-10-04T21:46:09.831Z,12.33
2022-10-04T21:48:39.406Z,12.37
2022-10-04T21:51:09.049Z,12.41
2022-10-04T21:53:41.194Z,12.40
2022-10-04T21:56:10.742Z,12.36
2022-10-04T21:58:40.313Z,12.38
2022-10-04T22:01:10.079Z,12.42
2022-10-04T22:03:39.659Z,12.44
2022-10-04T22:06:09.330Z,12.45
2022-10-04T22:08:42.972Z,12.46
2022-10-04T22:11:12.685Z,12.49
2022-10-04T22:13:42.614Z,12.52
2022-10-04T22:16:12.200Z,12.55
2022-10-04T22:18:41.856Z,12.53
2022-10-04T22:21:11.492Z,12.51
2022-10-04T22:23:45.555Z,12.54
2022-10-04T22:26:16.377Z,12.56
2022-10-04T22:28:47.781Z,12.60
2022-10-04T22:31:19.286Z,12.61
2022-10-04T22:33:50.561Z,12.62
2022-10-04T22:36:22.686Z,12.63
2022-10-04T22:38:59.928Z,12.63
2022-10-04T22:41:31.169Z,12.59
2022-10-04T22:44:02.732Z,12.57
2022-10-04T22:46:36.360Z,12.58
2022-10-04T22:49:11.740Z,12.61
2022-10-04T22:51:42.809Z,12.62
2022-10-04T22:54:17.346Z,12.62
2022-10-04T22:56:47.488Z,12.63
2022-10-04T22:59:19.780Z,12.62
2022-10-04T23:01:50.483Z,12.64
2022-10-04T23:04:24.879Z,12.65
2022-10-04T23:06:55.262Z,12.67
2022-10-04T23:09:27.343Z,12.68
2022-10-04T23:11:56.883Z,12.70
2022-10-04T23:14:26.521Z,12.72
2022-10-04T23:16:56.139Z,12.76
2022-10-04T23:19:25.708Z,12.76
2022-10-04T23:21:55.312Z,12.78
2022-10-04T23:24:27.429Z,12.78
2022-10-04T23:26:58.379Z,12.80
2022-10-04T23:29:29.697Z,12.83
2022-10-04T23:31:59.767Z,12.85
2022-10-04T23:34:31.911Z,12.83
2022-10-04T23:37:01.720Z,12.83
2022-10-04T23:39:36.116Z,12.82
2022-10-04T23:42:16.110Z,12.83
2022-10-04T23:44:45.786Z,12.81
2022-10-04T23:47:18.081Z,12.80
2022-10-04T23:49:48.413Z,12.79
2022-10-04T23:52:22.979Z,12.77
2022-10-04T23:54:56.693Z,12.76
2022-10-04T23:57:27.989Z,12.75
2022-10-04T23:59:57.568Z,12.76
